Hartland, WI (53029)

11:15 AM CDT on May 27, 2015 (GMT -0500)
Arrowhead High School | | Change Station
CLOSE
Current Station
Personal Weather Station
Location: Hartland, WI
Elevation: 948 ft
Nearby Weather Stations

Elev 948 ft 43.11 °N, 88.35 °W | Updated 14 minutes ago

Overcast
Overcast
63.5 °F
Feels Like 63.5 °F
N
5.0
Wind Variable Wind from NW
Gusts 9.0 mph

Today
High -- | Low -- °F
--% Chance of Precip.
Yesterday
High -- | Low -- °F
Precip. -- in
5:19 AM 8:21 PM
Waxing Gibbous, 68% visible
Pressure 29.93 in
Visibility 10.0 miles
Clouds Mostly Cloudy 1900 ft
Mostly Cloudy 3200 ft
Mostly Cloudy 4200 ft
Dew Point 60 °F
Humidity 89%
Rainfall 0.02 in
Snow Depth Not available.
UV 5 out of 12
Pollen 7.90 out of 12
Air Quality Not available.
Flu Activity Sporadic
METAR KUES 271545Z 25009G19KT 10SM BKN019 BKN032 BKN042 19/14 A2993

More Conditions Fewer Conditions

Pressure 29.93 in
Visibility 10.0 miles
Clouds Mostly Cloudy 1900 ft
Mostly Cloudy 3200 ft
Mostly Cloudy 4200 ft
Dew Point 60 °F
Humidity 89%
Rainfall 0.02 in
Snow Depth Not available.
UV 5 out of 12
Pollen 7.90 out of 12
Air Quality Not available.
Flu Activity Sporadic
METAR KUES 271545Z 25009G19KT 10SM BKN019 BKN032 BKN042 19/14 A2993

More Conditions Fewer Conditions

10-Day Weather Forecast

Almanac

Astronomy

May. 27, 2015 Rise Set
Actual Time
Civil Twilight
Nautical Twilight
Astronomical Twilight
Moon
Length of Visible Light
Length of Day
Tomorrow will be .
, % of the Moon is Illuminated

Today's Extremes

State Highs State Lows

Community

WunderPhotos

Upload Photos

1,824,707 photos uploaded!

WunderBlogs® & News

Nearby

Air Quality

  Air Quality AQ Index Pollutant
Not available.

Snow Depth

Station Depth Elevation

Earthquake Activity

City Distance Mag. Time & Date
Minimum magnitude displayed is 2.5.

Coastal Water Temperatures

Place Temperature

Stations

Nearby Weather Stations

Station Location Temp. Windchill Dew Point Humidity Wind Precip. Elev Updated Type